Terminal Aerodrome Forecast
Issued by NWS Cleveland, OH

Home | Current Version | Previous Version | Text Only | Print | Product List | Glossary On
Versions: 1 2 3 4 5 6 7 8 9 10 11 12 13 14 15 16 17 18 19 20 21
000
FTUS41 KCLE 162320
TAFCAK
TAF
KCAK 162320Z 1700/1724 25005KT P6SM SCT100
     FM170900 VRB03KT 5SM BR SCT025 BKN200
      TEMPO 1710/1713 3SM BR BKN025
     FM171600 18005KT P6SM BKN035
     FM172000 20007KT 5SM BR OVC035
     FM172300 21008KT 5SM BR OVC015=

USA.gov is the U.S. government's official web portal to all federal, state and local government web resources and services.